createdAt,value
2018-08-09T00:00:19.046Z,983.11
2018-08-09T00:01:19.014Z,983.10
2018-08-09T00:02:18.985Z,983.09
2018-08-09T00:03:18.957Z,983.08
2018-08-09T00:04:18.922Z,983.07
2018-08-09T00:05:18.889Z,983.06
2018-08-09T00:06:18.853Z,983.09
2018-08-09T00:07:18.820Z,983.05
2018-08-09T00:08:18.814Z,983.07
2018-08-09T00:09:18.760Z,983.10
2018-08-09T00:10:18.723Z,983.07
2018-08-09T00:11:18.693Z,983.07
2018-08-09T00:12:18.660Z,983.02
2018-08-09T00:13:18.632Z,983.09
2018-08-09T00:14:18.601Z,983.10
2018-08-09T00:15:18.569Z,983.13
2018-08-09T00:16:18.538Z,983.14
2018-08-09T00:17:18.504Z,983.14
2018-08-09T00:18:18.468Z,983.13
2018-08-09T00:19:18.454Z,983.12
2018-08-09T00:20:18.404Z,983.14
2018-08-09T00:21:18.373Z,983.13
2018-08-09T00:22:18.343Z,983.16
2018-08-09T00:23:18.315Z,983.17
2018-08-09T00:24:18.275Z,983.13
2018-08-09T00:25:18.253Z,983.11
2018-08-09T00:26:18.217Z,983.09
2018-08-09T00:27:18.186Z,983.07
2018-08-09T00:28:18.153Z,983.03
2018-08-09T00:29:18.123Z,983.03
2018-08-09T00:30:18.086Z,983.04
2018-08-09T00:31:18.055Z,983.00
2018-08-09T00:32:18.017Z,982.98
2018-08-09T00:33:17.988Z,982.98
2018-08-09T00:34:17.957Z,982.95
2018-08-09T00:35:17.927Z,982.97
2018-08-09T00:36:17.896Z,982.97
2018-08-09T00:37:17.860Z,982.98
2018-08-09T00:38:17.826Z,983.04
2018-08-09T00:39:17.846Z,983.00
2018-08-09T00:40:17.767Z,982.96
2018-08-09T00:41:17.731Z,982.99
2018-08-09T00:42:17.703Z,982.92
2018-08-09T00:43:17.663Z,982.92
2018-08-09T00:44:17.630Z,982.86
2018-08-09T00:45:17.600Z,982.88
2018-08-09T00:46:17.572Z,982.86
2018-08-09T00:47:17.540Z,982.85
2018-08-09T00:48:17.508Z,982.87
2018-08-09T00:49:17.477Z,982.87
2018-08-09T00:50:17.439Z,982.82
2018-08-09T00:51:17.405Z,982.78
2018-08-09T00:52:17.375Z,982.78
2018-08-09T00:53:17.345Z,982.75
2018-08-09T00:54:17.313Z,982.74
2018-08-09T00:55:17.289Z,982.73
2018-08-09T00:56:17.244Z,982.73
2018-08-09T00:57:17.215Z,982.73
2018-08-09T00:58:17.183Z,982.74
2018-08-09T00:59:17.159Z,982.73
2018-08-09T01:00:17.120Z,982.69
2018-08-09T01:01:17.086Z,982.71
2018-08-09T01:02:17.059Z,982.75
2018-08-09T01:03:17.017Z,982.72
2018-08-09T01:04:16.990Z,982.75
2018-08-09T01:05:16.959Z,982.74
2018-08-09T01:06:16.920Z,982.74
2018-08-09T01:07:16.891Z,982.71
2018-08-09T01:08:16.859Z,982.70
2018-08-09T01:09:16.823Z,982.71
2018-08-09T01:10:16.797Z,982.73
2018-08-09T01:11:16.762Z,982.72
2018-08-09T01:12:16.729Z,982.71
2018-08-09T01:13:16.696Z,982.68
2018-08-09T01:14:16.667Z,982.72
2018-08-09T01:15:16.667Z,982.71
2018-08-09T01:16:16.621Z,982.72
2018-08-09T01:17:16.573Z,982.66
2018-08-09T01:18:16.534Z,982.65
2018-08-09T01:19:16.509Z,982.69
2018-08-09T01:20:16.471Z,982.71
2018-08-09T01:21:16.438Z,982.69
2018-08-09T01:22:16.409Z,982.72
2018-08-09T01:23:16.389Z,982.68
2018-08-09T01:24:16.345Z,982.72
2018-08-09T01:25:16.312Z,982.70
2018-08-09T01:26:16.273Z,982.73
2018-08-09T01:27:16.250Z,982.72
2018-08-09T01:28:16.219Z,982.69
2018-08-09T01:29:16.184Z,982.69
2018-08-09T01:30:16.143Z,982.64
2018-08-09T01:31:16.120Z,982.65
2018-08-09T01:32:16.083Z,982.63
2018-08-09T01:33:16.049Z,982.65
2018-08-09T01:34:16.029Z,982.70
2018-08-09T01:35:15.985Z,982.70
2018-08-09T01:36:15.953Z,982.67
2018-08-09T01:37:15.922Z,982.67
2018-08-09T01:38:15.885Z,982.65
2018-08-09T01:39:15.851Z,982.66
2018-08-09T01:40:15.821Z,982.65
2018-08-09T01:41:15.786Z,982.64
2018-08-09T01:42:15.759Z,982.62
2018-08-09T01:43:15.724Z,982.62
2018-08-09T01:44:15.691Z,982.60
2018-08-09T01:45:15.656Z,982.64
2018-08-09T01:46:15.629Z,982.61
2018-08-09T01:47:15.597Z,982.61
2018-08-09T01:48:15.563Z,982.62
2018-08-09T01:49:15.531Z,982.63
2018-08-09T01:50:15.494Z,982.65
2018-08-09T01:51:15.468Z,982.67
2018-08-09T01:52:15.429Z,982.61
2018-08-09T01:53:15.395Z,982.61
2018-08-09T01:54:15.376Z,982.59
2018-08-09T01:55:15.334Z,982.61
2018-08-09T01:56:15.304Z,982.64
2018-08-09T01:57:15.273Z,982.65
2018-08-09T01:58:15.232Z,982.60
2018-08-09T01:59:15.206Z,982.61
2018-08-09T02:00:15.172Z,982.58
2018-08-09T02:01:15.141Z,982.58
2018-08-09T02:02:15.105Z,982.53
2018-08-09T02:03:15.071Z,982.49
2018-08-09T02:04:15.041Z,982.47
2018-08-09T02:05:15.023Z,982.47
2018-08-09T02:06:14.995Z,982.44
2018-08-09T02:07:14.946Z,982.43
2018-08-09T02:08:14.911Z,982.37
2018-08-09T02:09:14.882Z,982.30
2018-08-09T02:10:14.842Z,982.26
2018-08-09T02:11:14.811Z,982.20
2018-08-09T02:12:14.780Z,982.16
2018-08-09T02:13:14.744Z,982.18
2018-08-09T02:14:14.717Z,982.19
2018-08-09T02:15:14.686Z,982.20
2018-08-09T02:16:14.649Z,982.19
2018-08-09T02:17:14.615Z,982.14
2018-08-09T02:18:14.594Z,982.15
2018-08-09T02:19:14.552Z,982.15
2018-08-09T02:20:14.521Z,982.16
2018-08-09T02:21:14.490Z,982.12
2018-08-09T02:22:14.452Z,982.07
2018-08-09T02:23:14.422Z,982.11
2018-08-09T02:24:14.392Z,982.07
2018-08-09T02:25:14.363Z,982.01
2018-08-09T02:26:14.325Z,982.01
2018-08-09T02:27:14.292Z,982.00
2018-08-09T02:28:14.260Z,982.01
2018-08-09T02:29:14.234Z,982.01
2018-08-09T02:30:14.196Z,981.99
2018-08-09T02:31:14.160Z,982.00
2018-08-09T02:32:14.129Z,981.94
2018-08-09T02:33:14.099Z,981.98
2018-08-09T02:34:14.060Z,981.98
2018-08-09T02:35:14.034Z,981.98
2018-08-09T02:36:13.998Z,981.96
2018-08-09T02:37:13.961Z,981.94
2018-08-09T02:38:13.935Z,981.86
2018-08-09T02:39:13.901Z,981.88
2018-08-09T02:40:13.871Z,981.85
2018-08-09T02:41:13.839Z,981.89
2018-08-09T02:42:13.800Z,981.92
2018-08-09T02:43:13.768Z,981.91
2018-08-09T02:44:13.746Z,981.90
2018-08-09T02:45:13.702Z,981.90
2018-08-09T02:46:13.675Z,981.91
2018-08-09T02:47:13.639Z,981.86
2018-08-09T02:48:13.608Z,981.86
2018-08-09T02:49:13.576Z,981.87
2018-08-09T02:50:13.545Z,981.91
2018-08-09T02:51:13.508Z,981.87
2018-08-09T02:52:13.478Z,981.84
2018-08-09T02:53:13.446Z,981.82
2018-08-09T02:54:13.414Z,981.80
2018-08-09T02:55:13.374Z,981.76
2018-08-09T02:56:13.345Z,981.84
2018-08-09T02:57:13.337Z,981.87
2018-08-09T02:58:13.283Z,981.88
2018-08-09T02:59:13.248Z,981.88
2018-08-09T03:00:13.215Z,981.88
2018-08-09T03:01:13.187Z,981.87
2018-08-09T03:02:13.146Z,981.87
2018-08-09T03:03:13.114Z,981.85
2018-08-09T03:04:13.086Z,981.86
2018-08-09T03:05:13.056Z,981.84
2018-08-09T03:06:13.019Z,981.85
2018-08-09T03:07:12.983Z,981.82
2018-08-09T03:08:12.950Z,981.81
2018-08-09T03:09:12.916Z,981.80
2018-08-09T03:10:12.889Z,981.77
2018-08-09T03:11:12.854Z,981.82
2018-08-09T03:12:12.822Z,981.80
2018-08-09T03:13:12.792Z,981.78
2018-08-09T03:14:12.755Z,981.76
2018-08-09T03:15:12.735Z,981.76
2018-08-09T03:16:12.690Z,981.74
2018-08-09T03:17:12.671Z,981.71
2018-08-09T03:18:12.627Z,981.68
2018-08-09T03:19:12.593Z,981.71
2018-08-09T03:20:12.558Z,981.70
2018-08-09T03:21:12.534Z,981.72
2018-08-09T03:22:12.494Z,981.69
2018-08-09T03:23:12.463Z,981.76
2018-08-09T03:24:12.472Z,981.74
2018-08-09T03:25:12.400Z,981.71
2018-08-09T03:26:12.360Z,981.71
2018-08-09T03:27:12.332Z,981.70
2018-08-09T03:28:12.296Z,981.68
2018-08-09T03:29:12.264Z,981.67
2018-08-09T03:30:12.236Z,981.68
2018-08-09T03:31:12.208Z,981.70
2018-08-09T03:32:12.168Z,981.66
2018-08-09T03:33:12.139Z,981.63
2018-08-09T03:34:12.098Z,981.59
2018-08-09T03:35:12.068Z,981.67
2018-08-09T03:36:12.037Z,981.63
2018-08-09T03:37:12.007Z,981.62
2018-08-09T03:38:11.973Z,981.61
2018-08-09T03:39:11.937Z,981.59
2018-08-09T03:40:11.904Z,981.60
2018-08-09T03:41:11.872Z,981.58
2018-08-09T03:42:11.915Z,981.59
2018-08-09T03:43:11.809Z,981.59
2018-08-09T03:44:11.776Z,981.60
2018-08-09T03:45:11.750Z,981.58
2018-08-09T03:46:11.707Z,981.59
2018-08-09T03:47:11.686Z,981.57
2018-08-09T03:48:11.644Z,981.56
2018-08-09T03:49:11.610Z,981.53
2018-08-09T03:50:11.584Z,981.52
2018-08-09T03:51:11.548Z,981.51
2018-08-09T03:52:11.514Z,981.46
2018-08-09T03:53:11.481Z,981.46
2018-08-09T03:54:11.452Z,981.43
2018-08-09T04:07:04.029Z,981.57
2018-08-09T04:08:03.947Z,981.57
2018-08-09T04:09:03.916Z,981.57
2018-08-09T04:10:03.869Z,981.55
2018-08-09T04:11:03.838Z,981.56
2018-08-09T04:12:03.832Z,981.58
2018-08-09T04:13:03.763Z,981.61
2018-08-09T04:14:03.736Z,981.63
2018-08-09T04:15:03.704Z,981.64
2018-08-09T04:16:03.659Z,981.63
2018-08-09T04:17:03.624Z,981.61
2018-08-09T04:18:03.596Z,981.60
2018-08-09T04:19:03.561Z,981.56
2018-08-09T04:20:03.526Z,981.54
2018-08-09T04:21:03.495Z,981.52
2018-08-09T04:22:03.458Z,981.51
2018-08-09T04:23:03.425Z,981.47
2018-08-09T04:24:03.392Z,981.47
2018-08-09T04:25:03.358Z,981.47
2018-08-09T04:26:03.331Z,981.44
2018-08-09T04:27:03.294Z,981.40
2018-08-09T04:28:03.261Z,981.39
2018-08-09T04:29:03.230Z,981.38
2018-08-09T04:30:03.193Z,981.34
2018-08-09T04:31:03.159Z,981.33
2018-08-09T04:32:03.126Z,981.37
2018-08-09T04:33:03.097Z,981.34
2018-08-09T04:34:03.060Z,981.37
2018-08-09T04:35:03.028Z,981.37
2018-08-09T04:36:02.995Z,981.36
2018-08-09T04:37:02.963Z,981.39
2018-08-09T04:38:02.988Z,981.40
2018-08-09T04:39:02.902Z,981.43
2018-08-09T04:40:02.868Z,981.42
2018-08-09T04:41:02.836Z,981.43
2018-08-09T04:42:02.846Z,981.45
2018-08-09T04:43:02.778Z,981.41
2018-08-09T04:44:02.734Z,981.45
2018-08-09T04:45:02.702Z,981.45
2018-08-09T04:46:02.684Z,981.45
2018-08-09T04:47:02.644Z,981.45
2018-08-09T04:48:02.601Z,981.43
2018-08-09T04:49:02.571Z,981.44
2018-08-09T04:50:02.545Z,981.45
2018-08-09T04:51:02.510Z,981.47
2018-08-09T04:52:02.473Z,981.43
2018-08-09T04:53:02.446Z,981.41
2018-08-09T04:54:02.410Z,981.41
2018-08-09T04:55:02.376Z,981.39
2018-08-09T04:56:02.342Z,981.38
2018-08-09T04:57:02.311Z,981.41
2018-08-09T04:58:02.289Z,981.39
2018-08-09T04:59:02.247Z,981.40
2018-08-09T05:00:02.214Z,981.41
2018-08-09T05:01:02.184Z,981.40
2018-08-09T05:02:02.160Z,981.42
2018-08-09T05:03:02.114Z,981.37
2018-08-09T05:04:02.094Z,981.37
2018-08-09T05:05:02.054Z,981.37
2018-08-09T05:06:02.015Z,981.33
2018-08-09T05:07:01.984Z,981.35
2018-08-09T05:08:01.952Z,981.36
2018-08-09T05:09:01.920Z,981.31
2018-08-09T05:10:01.890Z,981.30
2018-08-09T05:11:01.857Z,981.28
2018-08-09T05:12:01.824Z,981.28
2018-08-09T05:13:01.796Z,981.30
2018-08-09T05:14:01.755Z,981.28
2018-08-09T05:15:01.725Z,981.26
2018-08-09T05:16:01.777Z,981.23
2018-08-09T05:17:01.658Z,981.24
2018-08-09T05:18:01.632Z,981.23
2018-08-09T05:19:01.599Z,981.25
2018-08-09T05:20:01.562Z,981.23
2018-08-09T05:21:01.531Z,981.18
2018-08-09T05:22:01.502Z,981.13
2018-08-09T05:23:01.479Z,981.05
2018-08-09T05:24:01.459Z,981.08
2018-08-09T05:25:01.418Z,981.09
2018-08-09T05:26:01.367Z,981.07
2018-08-09T05:27:01.338Z,981.07
2018-08-09T05:28:01.304Z,981.09
2018-08-09T05:29:01.269Z,981.09
2018-08-09T05:30:01.242Z,981.07
2018-08-09T05:31:01.209Z,981.08
2018-08-09T05:32:01.176Z,981.07
2018-08-09T05:33:01.145Z,981.12
2018-08-09T05:34:01.116Z,981.14
2018-08-09T05:35:01.077Z,981.13
2018-08-09T05:36:01.046Z,981.13
2018-08-09T05:37:01.015Z,981.12
2018-08-09T05:38:00.976Z,981.05
2018-08-09T05:39:00.955Z,981.04
2018-08-09T05:40:00.919Z,981.01
2018-08-09T05:41:00.882Z,981.02
2018-08-09T05:42:00.860Z,980.99
2018-08-09T05:43:00.820Z,981.00
2018-08-09T05:44:00.788Z,980.96
2018-08-09T05:45:00.764Z,980.93
2018-08-09T05:46:00.719Z,980.88
2018-08-09T05:47:00.690Z,980.91
2018-08-09T05:48:00.658Z,980.89
2018-08-09T05:49:00.622Z,980.85
2018-08-09T05:50:00.598Z,980.86
2018-08-09T05:51:00.563Z,980.84
2018-08-09T05:52:00.527Z,980.85
2018-08-09T05:53:00.506Z,980.82
2018-08-09T05:54:00.466Z,980.76
2018-08-09T05:55:00.433Z,980.77
2018-08-09T05:56:00.402Z,980.72
2018-08-09T05:57:00.371Z,980.76
2018-08-09T05:58:00.343Z,980.77
2018-08-09T05:59:00.304Z,980.77
2018-08-09T06:00:00.270Z,980.78
2018-08-09T06:01:00.235Z,980.79
2018-08-09T06:02:00.215Z,980.75
2018-08-09T06:03:00.176Z,980.75
2018-08-09T06:04:00.143Z,980.69
2018-08-09T06:05:00.113Z,980.75
2018-08-09T06:06:00.074Z,980.69
2018-08-09T06:07:00.078Z,980.68
2018-08-09T06:08:00.017Z,980.71
2018-08-09T06:08:59.985Z,980.67
2018-08-09T06:09:59.949Z,980.67
2018-08-09T06:10:59.916Z,980.55
2018-08-09T06:11:59.883Z,980.53
2018-08-09T06:12:59.849Z,980.49
2018-08-09T06:13:59.823Z,980.40
2018-08-09T06:14:59.788Z,980.38
2018-08-09T06:15:59.756Z,980.38
2018-08-09T06:16:59.732Z,980.38
2018-08-09T06:17:59.690Z,980.41
2018-08-09T06:18:59.672Z,980.49
2018-08-09T06:19:59.627Z,980.52
2018-08-09T06:20:59.595Z,980.51
2018-08-09T06:21:59.566Z,980.47
2018-08-09T06:22:59.533Z,980.43
2018-08-09T06:23:59.502Z,980.43
2018-08-09T06:24:59.468Z,980.33
2018-08-09T06:25:59.439Z,980.30
2018-08-09T06:26:59.409Z,980.33
2018-08-09T06:27:59.376Z,980.36
2018-08-09T06:28:59.346Z,980.33
2018-08-09T06:29:59.309Z,980.27
2018-08-09T06:30:59.276Z,980.25
2018-08-09T06:31:59.249Z,980.25
2018-08-09T06:32:59.211Z,980.18
2018-08-09T06:33:59.185Z,980.18
2018-08-09T06:34:59.151Z,980.19
2018-08-09T06:35:59.121Z,980.19
2018-08-09T06:36:59.090Z,980.20
2018-08-09T06:37:59.052Z,980.21
2018-08-09T06:38:59.024Z,980.23
2018-08-09T06:39:58.992Z,980.19
2018-08-09T06:40:58.964Z,980.23
2018-08-09T06:41:58.925Z,980.23
2018-08-09T06:42:58.896Z,980.22
2018-08-09T06:43:58.864Z,980.21
2018-08-09T06:44:58.828Z,980.21
2018-08-09T06:45:58.805Z,980.21
2018-08-09T06:46:58.773Z,980.25
2018-08-09T06:47:58.740Z,980.27
2018-08-09T06:48:58.710Z,980.26
2018-08-09T06:49:58.673Z,980.26
2018-08-09T06:50:58.644Z,980.25
2018-08-09T06:51:58.615Z,980.25
2018-08-09T06:52:58.579Z,980.22
2018-08-09T06:53:58.552Z,980.22
2018-08-09T06:54:58.523Z,980.22
2018-08-09T06:55:58.487Z,980.17
2018-08-09T06:56:58.459Z,980.18
2018-08-09T06:57:58.429Z,980.18
2018-08-09T06:58:58.396Z,980.20
2018-08-09T06:59:58.363Z,980.21
2018-08-09T07:00:58.336Z,980.23
2018-08-09T07:01:58.298Z,980.15
2018-08-09T07:02:58.270Z,980.16
2018-08-09T07:03:58.241Z,980.12
2018-08-09T07:04:58.238Z,980.13
2018-08-09T07:05:58.179Z,980.12
2018-08-09T07:06:58.190Z,980.11
2018-08-09T07:07:58.113Z,980.13
2018-08-09T07:08:58.088Z,980.07
2018-08-09T07:09:58.048Z,980.03
2018-08-09T07:10:58.022Z,980.06
2018-08-09T07:11:57.998Z,980.01
2018-08-09T07:12:57.965Z,980.01
2018-08-09T07:13:57.931Z,979.99
2018-08-09T07:14:57.897Z,980.04
2018-08-09T07:15:57.864Z,980.04
2018-08-09T07:16:57.832Z,980.08
2018-08-09T07:17:57.807Z,980.12
2018-08-09T07:18:57.776Z,980.13
2018-08-09T07:19:57.746Z,980.13
2018-08-09T07:20:57.719Z,980.15
2018-08-09T07:21:57.678Z,980.13
2018-08-09T07:22:57.650Z,980.10
2018-08-09T07:23:57.621Z,980.06
2018-08-09T07:24:57.589Z,980.04
2018-08-09T07:25:57.562Z,980.08
2018-08-09T07:26:57.529Z,980.14
2018-08-09T07:27:57.496Z,980.13
2018-08-09T07:28:57.469Z,980.19
2018-08-09T07:29:57.438Z,980.15
2018-08-09T07:30:57.408Z,980.15
2018-08-09T07:31:57.375Z,980.19
2018-08-09T07:32:57.344Z,980.14
2018-08-09T07:33:57.313Z,980.16
2018-08-09T07:34:57.281Z,980.11
2018-08-09T07:35:57.251Z,980.11
2018-08-09T07:36:57.241Z,980.09
2018-08-09T07:37:57.195Z,980.03
2018-08-09T07:38:57.163Z,979.97
2018-08-09T07:39:57.130Z,979.94
2018-08-09T07:40:57.103Z,979.88
2018-08-09T07:41:57.065Z,979.87
2018-08-09T07:42:57.038Z,979.84
2018-08-09T07:43:57.008Z,979.87
2018-08-09T07:44:57.020Z,979.85
2018-08-09T07:45:56.944Z,979.88
2018-08-09T07:46:56.916Z,979.89
2018-08-09T07:47:56.898Z,979.86
2018-08-09T07:48:56.855Z,979.94
2018-08-09T07:49:56.830Z,979.93
2018-08-09T07:50:56.807Z,979.98
2018-08-09T07:51:56.768Z,979.96
2018-08-09T07:52:56.741Z,980.02
2018-08-09T07:53:56.706Z,979.99
2018-08-09T07:54:56.675Z,979.93
2018-08-09T07:55:56.645Z,979.91
2018-08-09T07:56:56.623Z,979.86
2018-08-09T07:57:56.596Z,979.83
2018-08-09T07:58:56.561Z,979.84
2018-08-09T07:59:56.525Z,979.83
2018-08-09T08:00:56.529Z,979.78
2018-08-09T08:01:56.471Z,979.79
2018-08-09T08:02:56.438Z,979.77
2018-08-09T08:03:56.407Z,979.76
2018-08-09T08:04:56.379Z,979.79
2018-08-09T08:05:56.346Z,979.80
2018-08-09T08:06:56.317Z,979.76
2018-08-09T08:07:56.286Z,979.81
2018-08-09T08:08:56.255Z,979.80
2018-08-09T08:09:56.233Z,979.77
2018-08-09T08:10:56.200Z,979.74
2018-08-09T08:11:56.169Z,979.84
2018-08-09T08:12:56.142Z,979.82
2018-08-09T08:13:56.107Z,979.76
2018-08-09T08:14:56.096Z,979.78
2018-08-09T08:15:56.071Z,979.82
2018-08-09T08:16:56.024Z,979.81
2018-08-09T08:17:55.987Z,979.81
2018-08-09T08:18:55.961Z,979.79
2018-08-09T08:19:55.932Z,979.79
2018-08-09T08:20:55.901Z,979.68
2018-08-09T08:21:55.875Z,979.70
2018-08-09T08:22:55.864Z,979.66
2018-08-09T08:23:55.814Z,979.60
2018-08-09T08:24:55.786Z,979.59
2018-08-09T08:25:55.751Z,979.58
2018-08-09T08:26:55.724Z,979.58
2018-08-09T08:27:55.694Z,979.55
2018-08-09T08:28:55.665Z,979.50
2018-08-09T08:29:55.645Z,979.50
2018-08-09T08:30:55.612Z,979.48
2018-08-09T08:31:55.576Z,979.48
2018-08-09T08:32:55.546Z,979.46
2018-08-09T08:33:55.523Z,979.40
2018-08-09T08:34:55.492Z,979.40
2018-08-09T08:35:55.461Z,979.33
2018-08-09T08:36:55.436Z,979.38
2018-08-09T08:37:55.401Z,979.43
2018-08-09T08:38:55.373Z,979.40
2018-08-09T08:39:55.344Z,979.40
2018-08-09T08:40:55.315Z,979.44
2018-08-09T08:41:55.362Z,979.43
2018-08-09T08:42:55.258Z,979.44
2018-08-09T08:43:55.229Z,979.43
2018-08-09T08:44:55.202Z,979.41
2018-08-09T08:45:55.166Z,979.41
2018-08-09T08:46:55.140Z,979.41
2018-08-09T08:47:55.118Z,979.42
2018-08-09T08:48:55.084Z,979.33
2018-08-09T08:49:55.051Z,979.26
2018-08-09T08:50:55.023Z,979.27
2018-08-09T08:51:54.993Z,979.23
2018-08-09T08:52:54.980Z,979.23
2018-08-09T08:53:54.939Z,979.24
2018-08-09T08:54:54.908Z,979.21
2018-08-09T08:55:54.877Z,979.20
2018-08-09T08:56:54.856Z,979.20
2018-08-09T08:57:54.817Z,979.12
2018-08-09T08:58:54.795Z,979.12
2018-08-09T08:59:54.776Z,979.10
2018-08-09T09:00:54.761Z,979.06
2018-08-09T09:01:54.705Z,979.02
2018-08-09T09:02:54.674Z,979.01
2018-08-09T09:03:54.642Z,978.98
2018-08-09T09:04:54.633Z,978.97
2018-08-09T09:05:54.591Z,978.95
2018-08-09T09:06:54.609Z,978.91
2018-08-09T09:07:54.529Z,978.92
2018-08-09T09:08:54.501Z,978.90
2018-08-09T09:09:54.466Z,978.88
2018-08-09T09:10:54.443Z,978.80
2018-08-09T09:11:54.409Z,978.70
2018-08-09T09:12:54.379Z,978.67
2018-08-09T09:13:54.358Z,978.68
2018-08-09T09:14:54.325Z,978.61
2018-08-09T09:15:54.296Z,978.56
2018-08-09T09:16:54.268Z,978.49
2018-08-09T09:17:54.234Z,978.43
2018-08-09T09:18:54.207Z,978.40
2018-08-09T09:19:54.178Z,978.39
2018-08-09T09:20:54.156Z,978.33
2018-08-09T09:21:54.121Z,978.24
2018-08-09T09:22:54.093Z,978.19
2018-08-09T09:23:54.062Z,978.19
2018-08-09T09:24:54.032Z,978.21
2018-08-09T09:25:54.008Z,978.21
2018-08-09T09:26:53.998Z,978.20
2018-08-09T09:27:53.948Z,978.20
2018-08-09T09:28:53.923Z,978.20
2018-08-09T09:29:53.886Z,978.14
2018-08-09T09:30:53.860Z,978.11
2018-08-09T09:31:53.831Z,978.08
2018-08-09T09:32:53.800Z,978.01
2018-08-09T09:33:53.778Z,977.95
2018-08-09T09:34:53.748Z,977.87
2018-08-09T09:35:53.716Z,977.83
2018-08-09T09:36:53.685Z,977.77
2018-08-09T09:37:53.664Z,977.72
2018-08-09T09:38:53.636Z,977.70
2018-08-09T09:39:53.608Z,977.68
2018-08-09T09:40:53.578Z,977.66
2018-08-09T09:41:53.546Z,977.58
2018-08-09T09:42:53.514Z,977.55
2018-08-09T09:43:53.486Z,977.56
2018-08-09T09:44:53.454Z,977.56
2018-08-09T09:45:53.434Z,977.53
2018-08-09T09:46:53.411Z,977.54
2018-08-09T09:47:53.373Z,977.54
2018-08-09T09:48:53.347Z,977.52
2018-08-09T09:49:53.312Z,977.48
2018-08-09T09:50:53.286Z,977.51
2018-08-09T09:51:53.258Z,977.42
2018-08-09T09:52:53.236Z,977.42
2018-08-09T09:53:53.198Z,977.41
2018-08-09T09:54:53.220Z,977.40
2018-08-09T09:55:53.150Z,977.35
2018-08-09T09:56:53.115Z,977.24
2018-08-09T09:57:53.090Z,977.23
2018-08-09T09:58:53.060Z,977.17
2018-08-09T09:59:53.033Z,977.14
2018-08-09T10:00:53.010Z,977.16
2018-08-09T10:01:52.983Z,977.24
2018-08-09T10:02:52.945Z,977.36
2018-08-09T10:03:52.921Z,977.40
2018-08-09T10:04:52.888Z,977.46
2018-08-09T10:05:52.865Z,977.43
2018-08-09T10:06:52.836Z,977.39
2018-08-09T10:07:52.806Z,977.29
2018-08-09T10:21:12.712Z,977.04
2018-08-09T10:22:12.632Z,977.06
2018-08-09T10:23:12.603Z,977.02
2018-08-09T10:24:12.571Z,977.02
2018-08-09T10:25:12.548Z,977.03
2018-08-09T10:26:12.514Z,977.02
2018-08-09T10:27:12.482Z,977.04
2018-08-09T10:28:12.451Z,976.98
2018-08-09T10:29:12.418Z,976.99
2018-08-09T10:30:12.386Z,976.96
2018-08-09T10:31:12.357Z,976.92
2018-08-09T10:32:12.331Z,976.91
2018-08-09T10:33:12.307Z,976.91
2018-08-09T10:34:12.278Z,976.92
2018-08-09T10:35:12.248Z,976.96
2018-08-09T10:36:12.216Z,976.86
2018-08-09T10:37:12.192Z,976.81
2018-08-09T10:38:12.163Z,976.79
2018-08-09T10:39:12.138Z,976.73
2018-08-09T10:40:12.110Z,976.72
2018-08-09T10:41:12.076Z,976.71
2018-08-09T10:42:12.045Z,976.70
2018-08-09T10:43:12.018Z,976.68
2018-08-09T10:44:11.992Z,976.74
2018-08-09T10:45:11.969Z,976.78
2018-08-09T10:46:11.948Z,976.84
2018-08-09T10:47:11.914Z,976.85
2018-08-09T10:48:11.882Z,976.84
2018-08-09T10:49:11.851Z,976.76
2018-08-09T10:50:11.824Z,976.76
2018-08-09T10:51:11.801Z,976.75
2018-08-09T10:52:11.787Z,976.68
2018-08-09T10:53:11.740Z,976.68
2018-08-09T10:54:11.712Z,976.73
2018-08-09T10:55:11.686Z,976.76
2018-08-09T10:56:11.657Z,976.75
2018-08-09T10:57:11.636Z,976.76
2018-08-09T10:58:11.607Z,976.83
2018-08-09T10:59:11.584Z,976.79
2018-08-09T11:00:11.553Z,976.82
2018-08-09T11:01:11.522Z,976.72
2018-08-09T11:02:11.491Z,976.76
2018-08-09T11:03:11.466Z,976.72
2018-08-09T11:04:11.463Z,976.62
2018-08-09T11:05:11.415Z,976.61
2018-08-09T11:06:11.387Z,976.57
2018-08-09T11:07:11.381Z,976.60
2018-08-09T11:08:11.333Z,976.56
2018-08-09T11:09:11.306Z,976.52
2018-08-09T11:10:11.280Z,976.43
2018-08-09T11:11:11.255Z,976.44
2018-08-09T11:12:11.226Z,976.25
2018-08-09T11:13:11.194Z,976.34
2018-08-09T11:14:11.165Z,976.22
2018-08-09T11:15:11.138Z,976.15
2018-08-09T11:16:11.112Z,976.23
2018-08-09T11:17:11.089Z,976.19
2018-08-09T11:18:11.065Z,976.09
2018-08-09T11:19:11.034Z,976.05
2018-08-09T11:20:11.008Z,976.00
2018-08-09T11:21:10.978Z,975.92
2018-08-09T11:22:10.947Z,975.87
2018-08-09T11:23:10.926Z,975.82
2018-08-09T11:24:10.900Z,975.80
2018-08-09T11:25:10.868Z,975.75
2018-08-09T11:26:10.841Z,975.80
2018-08-09T11:27:10.811Z,975.79
2018-08-09T11:28:10.788Z,975.84
2018-08-09T11:29:10.761Z,975.84
2018-08-09T11:30:10.739Z,975.94
2018-08-09T11:31:10.713Z,975.85
2018-08-09T11:32:10.683Z,975.87
2018-08-09T11:33:10.651Z,975.94
2018-08-09T11:34:10.623Z,975.92
2018-08-09T11:35:10.598Z,975.90
2018-08-09T11:36:10.569Z,975.89
2018-08-09T11:37:10.544Z,975.82
2018-08-09T11:38:10.518Z,975.82
2018-08-09T11:39:10.494Z,975.77
2018-08-09T11:40:10.460Z,975.71
2018-08-09T11:41:10.436Z,975.69
2018-08-09T11:42:10.408Z,975.70
2018-08-09T11:43:10.391Z,975.68
2018-08-09T11:44:10.359Z,975.77
2018-08-09T11:45:10.332Z,975.78
2018-08-09T11:46:10.293Z,975.76
2018-08-09T11:47:10.268Z,975.78
2018-08-09T11:48:10.242Z,975.89
2018-08-09T11:49:10.219Z,975.92
2018-08-09T11:50:10.197Z,975.98
2018-08-09T11:51:10.161Z,975.93
2018-08-09T11:52:10.138Z,975.95
2018-08-09T11:53:10.103Z,975.97
2018-08-09T11:54:10.111Z,976.01
2018-08-09T11:55:10.052Z,975.95
2018-08-09T11:56:10.033Z,975.92
2018-08-09T11:57:10.047Z,975.96
2018-08-09T11:58:09.962Z,976.02
2018-08-09T11:59:09.934Z,976.08
2018-08-09T12:00:09.913Z,976.05
2018-08-09T12:01:09.883Z,976.12
2018-08-09T12:02:09.857Z,976.08
2018-08-09T12:03:09.837Z,976.00
2018-08-09T12:04:09.800Z,976.10
2018-08-09T12:05:09.771Z,976.20
2018-08-09T12:06:09.745Z,975.99
2018-08-09T12:07:09.767Z,976.00
2018-08-09T12:08:09.705Z,975.89
2018-08-09T12:09:09.665Z,975.80
2018-08-09T12:10:09.640Z,975.86
2018-08-09T12:11:09.606Z,975.84
2018-08-09T12:12:09.582Z,975.87
2018-08-09T12:13:09.562Z,975.89
2018-08-09T12:14:09.524Z,975.96
2018-08-09T12:15:09.523Z,975.85
2018-08-09T12:16:09.467Z,975.87
2018-08-09T12:17:09.437Z,975.88
2018-08-09T12:18:09.409Z,975.84
2018-08-09T12:19:09.380Z,975.94
2018-08-09T12:20:09.355Z,975.95
2018-08-09T12:21:09.328Z,976.04
2018-08-09T12:22:09.301Z,976.00
2018-08-09T12:23:09.274Z,975.95
2018-08-09T12:24:09.245Z,976.10
2018-08-09T12:25:09.218Z,975.97
2018-08-09T12:26:09.185Z,976.01
2018-08-09T12:27:09.162Z,976.01
2018-08-09T12:28:09.137Z,975.95
2018-08-09T12:29:09.105Z,975.90
2018-08-09T12:30:09.072Z,975.92
2018-08-09T12:31:09.044Z,975.90
2018-08-09T12:32:09.023Z,975.87
2018-08-09T12:33:09.021Z,975.85
2018-08-09T12:34:08.967Z,975.80
2018-08-09T12:35:08.939Z,975.81
2018-08-09T12:36:08.909Z,975.86
2018-08-09T12:37:08.881Z,975.96
2018-08-09T12:38:08.849Z,975.81
2018-08-09T12:39:08.821Z,975.92
2018-08-09T12:40:08.795Z,975.91
2018-08-09T12:41:08.773Z,975.78
2018-08-09T12:42:08.742Z,975.69
2018-08-09T12:43:08.709Z,975.72
2018-08-09T12:44:08.684Z,975.67
2018-08-09T12:45:08.685Z,975.66
2018-08-09T12:46:08.629Z,975.85
2018-08-09T12:47:08.600Z,975.77
2018-08-09T12:48:08.571Z,975.89
2018-08-09T12:49:08.543Z,975.99
2018-08-09T12:50:08.509Z,975.83
2018-08-09T12:51:08.481Z,975.94
2018-08-09T12:52:08.455Z,975.68